Time;durP1;ratioP1;P1;durP2;ratioP2;P2;SDS_P1;SDS_P2;PMS_P1;PMS_P2;Temp;Humidity;BMP_temperature;BMP_pressure;BME280_temperature;BME280_humidity;BME280_pressure;Samples;Min_cycle;Max_cycle;Signal;HPM_P1;HPM_P2
2022/01/25 00:29:26;;;;;;;53.58;26.33;;;141.60;2176.00;;;;;;6234188;22;20024;-78
2022/01/25 00:31:53;;;;;;;52.47;25.45;;;141.50;2176.00;;;;;;6268358;23;20023;-75
2022/01/25 00:34:19;;;;;;;49.60;25.50;;;141.50;2176.00;;;;;;6268228;23;20004;-80
2022/01/25 00:36:45;;;;;;;47.28;23.83;;;141.50;2176.00;;;;;;6268548;22;19994;-82
2022/01/25 00:39:48;;;;;;;43.15;21.83;;;141.50;2176.00;;;;;;6269587;22;20022;-80
2022/01/25 00:42:39;;;;;;;43.63;22.38;;;141.50;2176.00;;;;;;6119504;23;20026;-79
2022/01/25 00:45:28;;;;;;;43.70;20.83;;;141.50;2176.00;;;;;;6033183;23;20019;-79
2022/01/25 00:48:50;;;;;;;38.80;22.05;;;141.50;2176.00;;;;;;6011413;23;20023;-76
2022/01/25 00:54:10;;;;;;;57.72;29.25;;;141.60;2176.00;;;;;;6311755;22;20013;-77
2022/01/25 00:59:55;;;;;;;51.25;26.52;;;141.60;2176.00;;;;;;6112658;23;20022;-75
2022/01/25 01:02:22;;;;;;;54.53;27.75;;;141.60;2176.00;;;;;;6110460;23;20011;-79
2022/01/25 01:04:48;;;;;;;54.67;27.50;;;141.60;2176.00;;;;;;6121159;23;20015;-77
2022/01/25 01:09:51;;;;;;;50.55;25.50;;;141.70;2176.00;;;;;;6236169;22;20073;-76
2022/01/25 01:32:17;;;;;;;27.92;15.02;;;141.60;2176.00;;;;;;5978612;23;19993;-78
2022/01/25 01:43:31;;;;;;;31.80;15.93;;;141.60;2176.00;;;;;;5983566;23;20081;-75
2022/01/25 01:46:33;;;;;;;32.63;15.88;;;141.60;2176.00;;;;;;5949159;24;20009;-75
2022/01/25 01:49:29;;;;;;;33.05;18.08;;;141.60;2176.00;;;;;;5973303;23;20028;-78
2022/01/25 01:51:55;;;;;;;41.00;21.15;;;141.70;2176.00;;;;;;6002251;23;20037;-78
2022/01/25 01:54:23;;;;;;;41.05;19.08;;;141.70;2176.00;;;;;;6124950;23;19993;-76
2022/01/25 01:56:51;;;;;;;36.95;19.45;;;141.70;2176.00;;;;;;6177706;23;20017;-78
2022/01/25 02:00:00;;;;;;;35.40;19.13;;;141.60;2176.00;;;;;;6182724;23;20024;-79
2022/01/25 02:02:27;;;;;;;27.63;15.65;;;141.60;2176.00;;;;;;6061935;23;19991;-76
2022/01/25 02:04:54;;;;;;;27.25;15.75;;;141.60;2176.00;;;;;;6034400;23;20007;-79
2022/01/25 02:07:20;;;;;;;31.45;15.57;;;141.60;2176.00;;;;;;6038297;23;20051;-77
2022/01/25 02:09:47;;;;;;;27.85;14.88;;;141.60;2176.00;;;;;;6113900;23;20037;-76
2022/01/25 02:12:14;;;;;;;26.02;14.73;;;141.60;2176.00;;;;;;6119602;23;20050;-76
2022/01/25 02:14:42;;;;;;;29.67;16.10;;;141.60;2176.00;;;;;;6099475;23;19987;-78
2022/01/25 02:17:26;;;;;;;30.70;15.27;;;141.60;2176.00;;;;;;6119816;23;20003;-75
2022/01/25 02:23:36;;;;;;;29.05;15.68;;;141.60;2176.00;;;;;;6090900;23;20011;-77
2022/01/25 02:26:23;;;;;;;32.97;15.88;;;141.60;2176.00;;;;;;6091664;23;19998;-78
2022/01/25 02:29:12;;;;;;;29.35;15.63;;;141.60;2176.00;;;;;;6101029;22;20050;-83
2022/01/25 02:31:38;;;;;;;30.45;15.82;;;141.60;2176.00;;;;;;6271086;22;20026;-78
2022/01/25 02:34:04;;;;;;;28.23;15.38;;;141.60;2176.00;;;;;;6269853;22;19988;-76
2022/01/25 02:36:33;;;;;;;29.80;15.98;;;141.60;2176.00;;;;;;6270819;22;19999;-76
2022/01/25 02:39:00;;;;;;;27.15;14.88;;;141.60;2176.00;;;;;;6268456;22;19984;-78
2022/01/25 02:41:25;;;;;;;27.85;15.10;;;141.60;2176.00;;;;;;6267884;22;20015;-76
2022/01/25 02:43:55;;;;;;;29.60;15.55;;;141.60;2176.00;;;;;;6271430;22;20008;-75
2022/01/25 02:48:59;;;;;;;25.00;14.55;;;141.60;2176.00;;;;;;6268654;22;20426;-76
2022/01/25 02:51:30;;;;;;;29.33;15.68;;;141.60;2176.00;;;;;;6270570;22;20007;-74
2022/01/25 02:53:57;;;;;;;24.17;14.10;;;141.60;2176.00;;;;;;6269580;22;20004;-77
2022/01/25 02:59:46;;;;;;;30.75;17.42;;;141.60;2176.00;;;;;;6227146;22;20015;-80
2022/01/25 03:02:12;;;;;;;34.25;18.95;;;141.60;2176.00;;;;;;6274086;22;20086;-80
2022/01/25 03:04:59;;;;;;;32.08;17.67;;;141.70;2176.00;;;;;;6300106;22;20008;-77
2022/01/25 03:07:36;;;;;;;28.92;16.00;;;141.70;2176.00;;;;;;6302082;22;20035;-78
2022/01/25 03:10:05;;;;;;;29.25;16.02;;;141.70;2176.00;;;;;;6304393;22;20310;-75
2022/01/25 03:12:41;;;;;;;29.65;17.33;;;141.70;2176.00;;;;;;6300076;22;20008;-75
2022/01/25 03:17:52;;;;;;;41.83;21.65;;;166.40;2176.00;;;;;;6265298;22;20008;-77
2022/01/25 03:20:34;;;;;;;44.90;22.00;;;141.70;2176.00;;;;;;6269406;22;20054;-76
2022/01/25 03:23:05;;;;;;;43.05;22.80;;;141.70;2176.00;;;;;;6271927;22;20019;-76
2022/01/25 03:25:31;;;;;;;41.25;20.13;;;141.70;2176.00;;;;;;6274273;22;19980;-74
2022/01/25 03:30:34;;;;;;;59.17;27.35;;;166.50;2176.00;;;;;;6239939;22;20008;-84
2022/01/25 03:35:35;;;;;;;63.72;28.77;;;166.50;2176.00;;;;;;6257382;22;20008;-77
2022/01/25 03:38:01;;;;;;;87.93;34.92;;;166.40;2176.00;;;;;;6274814;22;19992;-77
2022/01/25 03:40:27;;;;;;;55.25;25.35;;;166.40;2176.00;;;;;;6269498;22;19991;-78
2022/01/25 03:42:54;;;;;;;61.67;28.38;;;166.40;2176.00;;;;;;6270576;22;20000;-78
2022/01/25 03:45:22;;;;;;;56.03;25.90;;;166.40;2176.00;;;;;;6271280;22;20060;-76
2022/01/25 03:50:24;;;;;;;38.60;19.38;;;166.40;2176.00;;;;;;6282814;22;20011;-77
2022/01/25 03:52:51;;;;;;;42.95;21.58;;;166.50;2176.00;;;;;;6230984;22;20017;-77
2022/01/25 03:55:18;;;;;;;40.00;19.73;;;166.50;2176.00;;;;;;6269286;23;19999;-76
2022/01/25 03:57:44;;;;;;;31.48;16.35;;;166.40;2176.00;;;;;;6266235;23;20008;-77
2022/01/25 04:05:52;;;;;;;31.75;16.95;;;166.60;2176.00;;;;;;6257778;22;20039;-75
2022/01/25 04:08:19;;;;;;;28.58;15.85;;;166.50;2176.00;;;;;;6242941;22;20004;-77
2022/01/25 04:10:46;;;;;;;28.20;15.45;;;166.50;2176.00;;;;;;6269831;22;19988;-76
2022/01/25 04:13:12;;;;;;;31.42;17.60;;;166.50;2176.00;;;;;;6267122;22;19992;-78
2022/01/25 04:15:46;;;;;;;29.15;16.65;;;166.50;2176.00;;;;;;6270391;22;20015;-80
2022/01/25 04:21:10;;;;;;;34.15;18.40;;;166.50;2176.00;;;;;;6282934;22;19955;-78
2022/01/25 04:26:20;;;;;;;36.50;20.38;;;166.50;2176.00;;;;;;6273842;22;20023;-77
2022/01/25 04:28:46;;;;;;;45.05;25.60;;;166.50;2176.00;;;;;;6272118;22;19996;-77
2022/01/25 04:31:16;;;;;;;40.00;21.73;;;166.50;2176.00;;;;;;6273933;22;20011;-77
2022/01/25 04:33:54;;;;;;;34.15;18.25;;;166.50;2176.00;;;;;;6275271;22;19999;-78
2022/01/25 04:49:51;;;;;;;55.58;24.05;;;166.60;2176.00;;;;;;6273487;22;19995;-75
2022/01/25 04:52:20;;;;;;;54.65;24.60;;;166.60;2176.00;;;;;;6272113;22;19995;-77
2022/01/25 04:54:58;;;;;;;48.55;23.60;;;166.50;2176.00;;;;;;6270049;23;19987;-77
2022/01/25 05:00:02;;;;;;;37.35;19.45;;;166.50;2176.00;;;;;;6285209;22;19988;-75
2022/01/25 05:05:30;;;;;;;57.22;25.10;;;166.70;2176.00;;;;;;6265161;22;20020;-81
2022/01/25 05:10:23;;;;;;;48.22;21.88;;;166.50;2176.00;;;;;;6283196;22;19988;-79
2022/01/25 05:13:09;;;;;;;71.32;28.70;;;166.50;2176.00;;;;;;6274120;22;19999;-78
2022/01/25 05:16:47;;;;;;;69.80;29.55;;;166.50;2176.00;;;;;;6300567;22;20012;-77
2022/01/25 05:24:48;;;;;;;37.65;18.65;;;166.70;2176.00;;;;;;6262124;22;20030;-74
2022/01/25 05:27:18;;;;;;;32.97;16.58;;;141.70;2176.00;;;;;;6277398;22;20000;-75
2022/01/25 05:29:44;;;;;;;33.58;17.73;;;166.50;2176.00;;;;;;6278889;22;19988;-78
2022/01/25 05:32:11;;;;;;;33.85;17.30;;;166.50;2176.00;;;;;;6273299;22;20003;-76
2022/01/25 05:34:37;;;;;;;28.02;15.85;;;166.50;2176.00;;;;;;6271997;22;20002;-77
2022/01/25 05:37:04;;;;;;;36.05;18.92;;;166.50;2176.00;;;;;;6295434;22;19987;-76
2022/01/25 05:39:34;;;;;;;29.92;16.70;;;166.50;2176.00;;;;;;6299842;22;20426;-77
2022/01/25 05:45:00;;;;;;;36.53;18.23;;;166.60;2176.00;;;;;;6277743;22;20038;-78
2022/01/25 05:48:10;;;;;;;40.85;19.15;;;166.50;2176.00;;;;;;6179078;23;20013;-80
2022/01/25 05:50:36;;;;;;;40.83;19.05;;;166.50;2176.00;;;;;;6121964;23;20006;-75
2022/01/25 05:53:11;;;;;;;42.15;20.05;;;166.60;2176.00;;;;;;6122660;23;20007;-78
2022/01/25 05:56:35;;;;;;;54.50;23.60;;;166.60;2176.00;;;;;;6065585;23;20006;-82
2022/01/25 05:59:01;;;;;;;57.25;21.98;;;166.50;2176.00;;;;;;6065782;23;19987;-75
2022/01/25 06:01:28;;;;;;;57.33;22.58;;;166.50;2176.00;;;;;;6039805;23;20011;-75
2022/01/25 06:03:54;;;;;;;63.40;24.88;;;166.60;2176.00;;;;;;6064147;23;20019;-75
2022/01/25 06:06:21;;;;;;;60.95;24.70;;;166.60;2176.00;;;;;;6063016;23;20022;-80
2022/01/25 06:08:46;;;;;;;59.63;24.95;;;166.50;2176.00;;;;;;6065194;23;20077;-77
2022/01/25 06:11:12;;;;;;;57.58;24.52;;;166.50;2176.00;;;;;;6060059;23;20008;-80
2022/01/25 06:13:42;;;;;;;50.50;22.90;;;166.50;2176.00;;;;;;6061390;23;19992;-77
2022/01/25 06:16:08;;;;;;;54.72;24.38;;;166.50;2176.00;;;;;;6061395;23;20026;-75
2022/01/25 06:18:34;;;;;;;61.97;29.40;;;166.50;2176.00;;;;;;6061657;23;20015;-77
2022/01/25 06:21:00;;;;;;;53.72;25.63;;;166.40;2176.00;;;;;;6061278;23;20011;-85
2022/01/25 06:23:25;;;;;;;47.25;23.27;;;166.40;2176.00;;;;;;6064422;23;20033;-76
2022/01/25 06:25:51;;;;;;;43.78;22.90;;;166.40;2176.00;;;;;;6089077;23;20031;-79
2022/01/25 06:28:18;;;;;;;45.63;23.70;;;141.70;2176.00;;;;;;6146137;23;20538;-84
2022/01/25 06:30:44;;;;;;;45.30;22.52;;;141.70;2176.00;;;;;;6155306;23;20109;-82
2022/01/25 06:33:10;;;;;;;48.90;23.92;;;141.60;2176.00;;;;;;6236110;22;20481;-82
2022/01/25 06:35:59;;;;;;;52.60;24.15;;;141.60;2176.00;;;;;;6244009;23;20083;-78
2022/01/25 06:38:47;;;;;;;50.72;24.02;;;141.50;2176.00;;;;;;6146246;23;20009;-79
2022/01/25 06:41:22;;;;;;;50.33;24.95;;;141.50;2176.00;;;;;;6146890;23;19982;-82
2022/01/25 06:43:48;;;;;;;46.80;24.00;;;141.40;2176.00;;;;;;6137156;23;20030;-76
2022/01/25 06:46:35;;;;;;;43.28;22.17;;;141.30;2176.00;;;;;;6145185;23;20006;-81
2022/01/25 06:49:22;;;;;;;58.13;29.00;;;141.20;2176.00;;;;;;6116704;23;20080;-87
2022/01/25 06:51:49;;;;;;;71.75;35.88;;;141.20;2176.00;;;;;;6119612;23;20017;-89
2022/01/25 06:54:17;;;;;;;54.28;29.70;;;141.10;2176.00;;;;;;6095282;23;20007;-88
2022/01/25 06:56:43;;;;;;;103.80;49.50;;;141.00;2176.00;;;;;;6119132;23;19987;-82
2022/01/25 06:59:09;;;;;;;112.28;59.17;;;140.90;2176.00;;;;;;6113342;23;19997;-83
2022/01/25 07:01:38;;;;;;;81.78;42.45;;;140.90;2176.00;;;;;;6118282;23;20006;-80
2022/01/25 07:04:04;;;;;;;62.60;33.08;;;140.80;2176.00;;;;;;6115868;23;20002;-78
2022/01/25 07:06:31;;;;;;;56.38;32.42;;;116.10;2176.00;;;;;;6110466;23;19998;-81
2022/01/25 07:08:58;;;;;;;62.45;31.10;;;116.00;2176.00;;;;;;6117879;23;20036;-75
2022/01/25 07:11:29;;;;;;;53.30;28.80;;;115.90;2176.00;;;;;;6102046;23;20468;-79
2022/01/25 07:13:58;;;;;;;52.28;27.88;;;115.70;2176.00;;;;;;6077196;23;20038;-75
2022/01/25 07:16:26;;;;;;;52.80;28.17;;;115.70;2176.00;;;;;;6214901;23;20027;-79
2022/01/25 07:18:56;;;;;;;53.63;28.40;;;115.60;2176.00;;;;;;6232505;23;20064;-79
2022/01/25 07:21:22;;;;;;;61.22;30.45;;;;;;;;;;6180917;23;20100;-81
2022/01/25 07:23:55;;;;;;;61.42;30.17;;;;;;;;;;6206988;23;20013;-86
2022/01/25 07:26:21;;;;;;;74.95;35.95;;;;;;;;;;6206155;23;20032;-81
2022/01/25 07:28:48;;;;;;;72.93;36.70;;;;;;;;;;6133482;23;19988;-83
2022/01/25 07:31:16;;;;;;;66.50;36.55;;;;;;;;;;6205678;23;20008;-86
2022/01/25 07:33:43;;;;;;;50.90;28.90;;;;;;;;;;6201151;23;20040;-77
2022/01/25 07:36:09;;;;;;;44.40;25.25;;;;;;;;;;6200881;23;20024;-79
2022/01/25 07:38:54;;;;;;;42.13;23.80;;;;;;;;;;6232321;23;20011;-82
2022/01/25 07:41:41;;;;;;;41.00;23.83;;;;;;;;;;6230912;23;20004;-85
2022/01/25 07:44:08;;;;;;;37.80;22.95;;;;;;;;;;6234021;23;20007;-78
2022/01/25 07:46:48;;;;;;;37.45;21.92;;;;;;;;;;6232211;23;20005;-83
2022/01/25 07:49:18;;;;;;;38.28;22.85;;;;;;;;;;6229524;23;20308;-84
2022/01/25 07:51:45;;;;;;;36.00;21.30;;;;;;;;;;6222981;23;20012;-78
2022/01/25 07:54:11;;;;;;;34.95;20.88;;;;;;;;;;6216666;23;20008;-78
2022/01/25 07:56:52;;;;;;;31.15;18.83;;;;;;;;;;6224219;23;20070;-85
2022/01/25 07:59:20;;;;;;;32.42;20.13;;;;;;;;;;6226173;23;20008;-76
2022/01/25 08:01:47;;;;;;;30.25;18.80;;;;;;;;;;6225386;23;20020;-80
2022/01/25 08:04:16;;;;;;;32.20;18.83;;;;;;;;;;6223081;23;20013;-80
2022/01/25 08:06:42;;;;;;;32.72;19.63;;;;;;;;;;6223075;23;20020;-75
2022/01/25 08:09:21;;;;;;;33.72;20.20;;;;;;;;;;6226028;23;20029;-77
2022/01/25 08:11:47;;;;;;;33.15;21.40;;;;;;;;;;6225849;23;20015;-83
2022/01/25 08:14:19;;;;;;;36.13;22.83;;;;;;;;;;6231250;23;20001;-81
2022/01/25 08:17:03;;;;;;;34.63;22.70;;;;;;;;;;6208052;23;20001;-80
2022/01/25 08:19:29;;;;;;;33.78;19.70;;;;;;;;;;6229149;23;20005;-76
2022/01/25 08:21:58;;;;;;;32.75;20.50;;;;;;;;;;6234390;23;20000;-80
2022/01/25 08:24:25;;;;;;;36.80;21.58;;;;;;;;;;6258424;23;20012;-73
2022/01/25 08:26:51;;;;;;;36.50;21.90;;;;;;;;;;6268145;23;20006;-76
2022/01/25 08:29:20;;;;;;;34.03;22.40;;;;;;;;;;6267497;23;20031;-74
2022/01/25 08:31:46;;;;;;;39.03;21.38;;;;;;;;;;6234298;23;20011;-74
2022/01/25 08:34:12;;;;;;;30.40;18.60;;;;;;;;;;6235629;23;19996;-76
2022/01/25 08:36:38;;;;;;;28.50;18.25;;;;;;;;;;6250717;23;20027;-74
2022/01/25 08:39:05;;;;;;;30.05;18.63;;;;;;;;;;6255992;23;20069;-73
2022/01/25 08:41:36;;;;;;;33.40;19.95;;;;;;;;;;6263727;23;20011;-73
2022/01/25 08:44:12;;;;;;;35.47;21.60;;;;;;;;;;6230793;23;20008;-76
2022/01/25 08:46:39;;;;;;;40.45;23.48;;;;;;;;;;6234779;23;20005;-75
2022/01/25 08:49:10;;;;;;;31.58;18.60;;;;;;;;;;6258333;23;20008;-76
2022/01/25 08:51:36;;;;;;;36.45;19.23;;;;;;;;;;6227723;23;20027;-75
2022/01/25 08:54:02;;;;;;;29.95;18.02;;;;;;;;;;6256590;23;20004;-76
2022/01/25 08:56:33;;;;;;;26.45;16.17;;;;;;;;;;6225194;23;20000;-77
2022/01/25 08:59:08;;;;;;;25.95;16.48;;;;;;;;;;6251487;23;20062;-75
2022/01/25 09:01:34;;;;;;;27.73;15.50;;;;;;;;;;6251833;23;20106;-75
2022/01/25 09:04:03;;;;;;;27.98;17.17;;;;;;;;;;6223474;23;20020;-76
2022/01/25 09:06:30;;;;;;;25.20;15.55;;;;;;;;;;6249347;23;20007;-75
2022/01/25 09:09:15;;;;;;;26.60;16.88;;;;;;;;;;6252128;23;20008;-83
2022/01/25 09:11:41;;;;;;;26.65;16.85;;;;;;;;;;6221880;23;20346;-76
2022/01/25 09:14:09;;;;;;;31.80;19.38;;;;;;;;;;6248691;23;20062;-77
2022/01/25 09:16:35;;;;;;;34.22;20.63;;;;;;;;;;6221188;23;20031;-77
2022/01/25 09:19:02;;;;;;;32.20;19.50;;;;;;;;;;6247860;23;20014;-75
2022/01/25 09:21:28;;;;;;;31.77;20.10;;;;;;;;;;6254863;22;19984;-77
2022/01/25 09:23:54;;;;;;;32.78;20.20;;;;;;;;;;6252265;23;20012;-76
2022/01/25 09:26:21;;;;;;;28.73;18.33;;;;;;;;;;6249606;23;20381;-75
2022/01/25 09:28:49;;;;;;;30.95;18.40;;;;;;;;;;6249870;23;20012;-76
2022/01/25 09:31:16;;;;;;;29.58;18.98;;;;;;;;;;6247034;23;20003;-76
2022/01/25 09:33:43;;;;;;;33.30;20.92;;;;;;;;;;6249175;23;20004;-76
2022/01/25 09:36:09;;;;;;;32.90;20.60;;;;;;;;;;6247672;23;20075;-76
2022/01/25 09:38:35;;;;;;;27.40;17.60;;;;;;;;;;6221812;23;20004;-77
2022/01/25 09:41:01;;;;;;;32.72;18.85;;;;;;;;;;6221092;23;20019;-78
2022/01/25 09:43:28;;;;;;;28.65;17.48;;;;;;;;;;6252095;23;20034;-77
2022/01/25 09:46:03;;;;;;;28.42;16.42;;;;;;;;;;6258782;23;20023;-76
2022/01/25 09:48:29;;;;;;;29.60;18.42;;;;;;;;;;6233986;23;20004;-81
2022/01/25 09:51:00;;;;;;;30.75;19.00;;;;;;;;;;6253865;23;20004;-77
2022/01/25 09:53:26;;;;;;;33.80;19.20;;;;;;;;;;6230630;23;20011;-76
2022/01/25 09:55:55;;;;;;;33.13;20.73;;;;;;;;;;6256929;23;19992;-79
2022/01/25 09:58:22;;;;;;;31.33;18.58;;;;;;;;;;6226719;23;20072;-78
2022/01/25 10:01:09;;;;;;;38.10;19.20;;;;;;;;;;6262831;23;20014;-77
2022/01/25 10:06:22;;;;;;;32.28;17.85;;;;;;;;;;6257735;23;20015;-77
2022/01/25 10:08:55;;;;;;;35.13;21.15;;;;;;;;;;6256997;23;20071;-76
2022/01/25 10:11:33;;;;;;;33.40;19.63;;;;;;;;;;6251646;23;20004;-74
2022/01/25 10:14:23;;;;;;;36.50;20.98;;;;;;;;;;6224882;23;20009;-76
2022/01/25 10:16:53;;;;;;;30.48;18.13;;;;;;;;;;6203096;23;20086;-74
2022/01/25 10:19:23;;;;;;;28.50;17.33;;;;;;;;;;6233875;23;20012;-78
2022/01/25 10:21:51;;;;;;;30.52;18.85;;;;;;;;;;6232326;23;20007;-76
2022/01/25 10:24:32;;;;;;;29.33;18.42;;;;;;;;;;6201460;23;20008;-75
2022/01/25 10:27:09;;;;;;;31.05;19.08;;;;;;;;;;6214794;23;20009;-77
2022/01/25 10:29:41;;;;;;;37.05;21.83;;;;;;;;;;6215108;23;20008;-76
2022/01/25 10:32:09;;;;;;;37.05;20.38;;;;;;;;;;6190385;23;20088;-77
2022/01/25 10:34:43;;;;;;;36.53;21.83;;;;;;;;;;6189303;23;20103;-76
2022/01/25 10:37:22;;;;;;;30.38;18.30;;;;;;;;;;6188982;23;20113;-75
2022/01/25 10:39:57;;;;;;;32.70;18.70;;;;;;;;;;6188758;23;20531;-76
2022/01/25 10:42:24;;;;;;;30.52;19.17;;;;;;;;;;6218792;23;20011;-74
2022/01/25 10:45:16;;;;;;;30.40;19.33;;;;;;;;;;6203818;23;20005;-73
2022/01/25 10:47:45;;;;;;;26.67;16.88;;;;;;;;;;6243799;23;20066;-71
2022/01/25 10:50:15;;;;;;;26.00;17.30;;;;;;;;;;6244357;23;20039;-70
2022/01/25 10:52:41;;;;;;;31.17;18.80;;;;;;;;;;6249071;23;20011;-77
2022/01/25 10:55:53;;;;;;;34.83;18.98;;;;;;;;;;6247478;23;20004;-77
2022/01/25 10:57:56;;;;;;;31.02;17.90;;;;;;;;;;6245423;22;20023;-76
2022/01/25 11:00:32;;;;;;;25.88;15.85;;;;;;;;;;6260313;23;20066;-75
2022/01/25 11:05:48;;;;;;;30.85;17.10;;;;;;;;;;6219776;22;20028;-79
2022/01/25 11:08:16;;;;;;;30.75;22.10;;;;;;;;;;6237490;22;20049;-74
2022/01/25 11:10:54;;;;;;;37.75;23.08;;;;;;;;;;6249482;22;20022;-73
2022/01/25 11:13:48;;;;;;;34.85;21.65;;;;;;;;;;6248407;22;20000;-75
2022/01/25 11:16:13;;;;;;;32.13;17.88;;;;;;;;;;6274962;22;20031;-77
2022/01/25 11:18:40;;;;;;;30.00;19.33;;;;;;;;;;6277777;22;20019;-78
2022/01/25 11:21:08;;;;;;;47.35;30.08;;;;;;;;;;6251133;22;20077;-78
2022/01/25 11:23:51;;;;;;;28.08;16.80;;;;;;;;;;6278610;22;20004;-77
2022/01/25 11:26:18;;;;;;;26.02;15.95;;;;;;;;;;6285207;22;20027;-77
2022/01/25 11:28:45;;;;;;;24.60;14.73;;;;;;;;;;6259377;22;20011;-76
2022/01/25 11:31:20;;;;;;;24.67;16.00;;;;;;;;;;6280209;22;20000;-75
2022/01/25 11:33:48;;;;;;;25.63;16.52;;;;;;;;;;6280830;22;20015;-76
2022/01/25 11:36:14;;;;;;;28.75;16.30;;;;;;;;;;6257283;22;20015;-74
2022/01/25 11:38:42;;;;;;;30.17;16.83;;;;;;;;;;6276855;22;20425;-72
2022/01/25 11:41:11;;;;;;;25.00;15.25;;;;;;;;;;6251133;22;20015;-73
2022/01/25 11:44:07;;;;;;;26.60;16.10;;;;;;;;;;6275412;22;20003;-72
2022/01/25 11:46:36;;;;;;;25.75;15.35;;;;;;;;;;6257184;22;20023;-74
2022/01/25 11:49:10;;;;;;;25.83;15.18;;;;;;;;;;6252625;22;20008;-78
2022/01/25 11:51:39;;;;;;;26.48;16.55;;;;;;;;;;6260075;22;20000;-77
2022/01/25 11:54:08;;;;;;;24.10;15.15;;;;;;;;;;6282828;22;20012;-76
2022/01/25 11:56:36;;;;;;;26.17;16.08;;;;;;;;;;6280004;22;20350;-76
2022/01/25 11:59:05;;;;;;;24.85;16.40;;;;;;;;;;6277686;22;20004;-77
2022/01/25 12:01:32;;;;;;;25.77;15.45;;;;;;;;;;6245383;22;20426;-74
2022/01/25 12:04:01;;;;;;;22.85;14.82;;;;;;;;;;6248325;23;20014;-76
2022/01/25 12:06:34;;;;;;;23.80;15.20;;;;;;;;;;6248652;23;20023;-74
2022/01/25 12:12:06;;;;;;;28.95;17.25;;;;;;;;;;6252385;23;20034;-74
2022/01/25 12:14:37;;;;;;;34.83;20.23;;;;;;;;;;6248460;23;20005;-74
2022/01/25 12:17:03;;;;;;;28.27;18.70;;;;;;;;;;6248275;23;20000;-67
2022/01/25 12:19:34;;;;;;;26.77;17.30;;;;;;;;;;6220976;23;20020;-68
2022/01/25 12:22:08;;;;;;;32.17;18.55;;;;;;;;;;6252874;23;20009;-68
2022/01/25 12:24:59;;;;;;;29.17;17.38;;;;;;;;;;6224424;23;20003;-70
2022/01/25 12:27:39;;;;;;;33.80;17.10;;;;;;;;;;6250776;23;20004;-67
2022/01/25 12:30:42;;;;;;;25.98;16.77;;;;;;;;;;6251358;23;20084;-72
2022/01/25 12:33:33;;;;;;;27.05;17.42;;;;;;;;;;6246002;23;20007;-69
2022/01/25 12:36:09;;;;;;;26.25;15.82;;;;;;;;;;6219644;23;20116;-77
2022/01/25 12:38:49;;;;;;;36.67;17.20;;;;;;;;;;6222096;23;20079;-74
2022/01/25 12:41:20;;;;;;;28.15;17.38;;;;;;;;;;6249853;23;20006;-69
2022/01/25 12:44:00;;;;;;;31.98;16.17;;;;;;;;;;6229067;23;20545;-78
2022/01/25 12:46:31;;;;;;;30.67;17.52;;;;;;;;;;6250720;23;20418;-73
2022/01/25 12:49:02;;;;;;;32.50;19.88;;;;;;;;;;6253834;22;20330;-78
2022/01/25 12:51:36;;;;;;;24.15;15.63;;;;;;;;;;6250226;23;20013;-78
2022/01/25 12:54:10;;;;;;;21.92;13.70;;;;;;;;;;6229525;23;20016;-79
2022/01/25 12:56:39;;;;;;;32.83;18.67;;;;;;;;;;6260067;22;19997;-75
2022/01/25 12:59:12;;;;;;;30.33;16.50;;;;;;;;;;6224269;23;20000;-74
2022/01/25 13:01:39;;;;;;;26.80;16.15;;;;;;;;;;6223522;22;20027;-76
2022/01/25 13:04:10;;;;;;;24.15;15.57;;;;;;;;;;6253074;22;20004;-70
2022/01/25 13:06:51;;;;;;;31.95;20.00;;;;;;;;;;6250708;23;20088;-78
2022/01/25 13:09:27;;;;;;;31.30;15.90;;;;;;;;;;6226128;23;20023;-75
2022/01/25 13:12:23;;;;;;;25.35;14.40;;;;;;;;;;6230169;23;20007;-77
2022/01/25 13:15:04;;;;;;;30.20;17.13;;;;;;;;;;6255190;23;20035;-77
2022/01/25 13:17:53;;;;;;;29.60;16.02;;;;;;;;;;6257029;23;20000;-78
2022/01/25 13:20:32;;;;;;;24.38;15.90;;;;;;;;;;6222226;23;20426;-73
2022/01/25 13:22:58;;;;;;;23.30;13.63;;;;;;;;;;6253906;23;19997;-75
2022/01/25 13:25:33;;;;;;;23.70;14.85;;;;;;;;;;6255314;22;20028;-77
2022/01/25 13:28:09;;;;;;;26.95;16.15;;;;;;;;;;6247843;23;20038;-77
2022/01/25 13:30:49;;;;;;;28.33;16.10;;;;;;;;;;6227711;23;20004;-76
2022/01/25 13:33:19;;;;;;;30.55;16.42;;;;;;;;;;6249296;23;20000;-73
2022/01/25 13:35:52;;;;;;;32.92;18.30;;;;;;;;;;6232781;23;20012;-79
2022/01/25 13:38:32;;;;;;;23.75;13.93;;;;;;;;;;6246469;23;20311;-74
2022/01/25 13:41:29;;;;;;;30.48;18.35;;;;;;;;;;6227747;23;20004;-78
2022/01/25 13:46:26;;;;;;;30.77;16.73;;;;;;;;;;6259689;23;20015;-75
2022/01/25 13:48:54;;;;;;;31.25;17.42;;;;;;;;;;6256382;23;20008;-76
2022/01/25 13:51:24;;;;;;;27.52;16.77;;;;;;;;;;6266152;23;19993;-78
2022/01/25 13:54:00;;;;;;;39.15;21.98;;;;;;;;;;6228847;23;20464;-76
2022/01/25 13:56:31;;;;;;;31.40;18.52;;;;;;;;;;6251148;23;20000;-73
2022/01/25 13:59:00;;;;;;;34.95;20.85;;;;;;;;;;6250947;23;20020;-76
2022/01/25 14:01:28;;;;;;;37.17;23.52;;;;;;;;;;6254154;22;19996;-74
2022/01/25 14:03:54;;;;;;;35.22;22.15;;;;;;;;;;6246244;23;20419;-72
2022/01/25 14:06:23;;;;;;;35.40;21.23;;;;;;;;;;6250308;23;20095;-77
2022/01/25 14:08:50;;;;;;;33.42;20.10;;;;;;;;;;6248208;23;20016;-73
2022/01/25 14:25:42;;;;;;;28.63;18.45;;;;;;;;;;6252146;23;20023;-72
2022/01/25 14:28:12;;;;;;;27.38;17.35;;;;;;;;;;6222161;23;20008;-71
2022/01/25 14:30:45;;;;;;;35.40;21.98;;;;;;;;;;6250451;23;20004;-72
2022/01/25 14:36:12;;;;;;;36.40;19.65;;;;;;;;;;6247483;23;20091;-71
2022/01/25 14:38:41;;;;;;;39.20;24.15;;;;;;;;;;6248897;23;20000;-72
2022/01/25 14:41:23;;;;;;;32.75;19.67;;;;;;;;;;6227315;23;20004;-71
2022/01/25 14:43:57;;;;;;;36.65;20.38;;;;;;;;;;6249931;23;20011;-72
2022/01/25 14:46:37;;;;;;;43.65;25.33;;;;;;;;;;6224864;23;20331;-71
2022/01/25 14:52:14;;;;;;;46.72;26.80;;;;;;;;;;6230614;23;20027;-71
2022/01/25 14:54:42;;;;;;;38.75;24.58;;;;;;;;;;6252212;23;20038;-72
2022/01/25 14:57:13;;;;;;;33.90;21.17;;;;;;;;;;6248751;23;20011;-72
2022/01/25 14:59:52;;;;;;;38.97;23.55;;;;;;;;;;6248773;23;20004;-72
2022/01/25 15:02:41;;;;;;;38.33;24.02;;;;;;;;;;6250136;22;20019;-72
2022/01/25 15:05:11;;;;;;;39.70;22.38;;;;;;;;;;6224039;23;20004;-72
2022/01/25 15:07:38;;;;;;;39.20;21.58;;;;;;;;;;6252835;23;20027;-76
2022/01/25 15:10:05;;;;;;;39.78;22.73;;;;;;;;;;6227373;23;20000;-71
2022/01/25 15:12:43;;;;;;;38.80;22.42;;;;;;;;;;6248242;23;20003;-74
2022/01/25 15:15:16;;;;;;;39.42;23.63;;;;;;;;;;6245296;23;20012;-75
2022/01/25 15:17:45;;;;;;;49.60;32.40;;;;;;;;;;6220021;23;20004;-78
2022/01/25 15:20:16;;;;;;;54.85;36.28;;;;;;;;;;6249805;23;20008;-73
2022/01/25 15:22:45;;;;;;;79.90;41.65;;;;;;;;;;6247309;23;20407;-75
2022/01/25 15:25:13;;;;;;;52.58;32.72;;;;;;;;;;6219310;23;20038;-74
2022/01/25 15:27:39;;;;;;;40.67;25.15;;;;;;;;;;6218932;23;20008;-74
2022/01/25 15:30:08;;;;;;;45.72;26.65;;;;;;;;;;6219418;23;20029;-74
2022/01/25 15:32:36;;;;;;;40.00;25.30;;;;;;;;;;6247124;23;20075;-74
2022/01/25 15:35:06;;;;;;;31.40;20.17;;;;;;;;;;6248829;23;20011;-74
2022/01/25 15:37:40;;;;;;;37.25;22.25;;;;;;;;;;6226313;23;20012;-73
2022/01/25 15:40:12;;;;;;;39.45;23.75;;;;;;;;;;6251631;23;20001;-73
2022/01/25 15:42:43;;;;;;;58.95;32.70;;;;;;;;;;6250090;23;20008;-72
2022/01/25 15:45:26;;;;;;;58.00;33.80;;;;;;;;;;6250435;23;20011;-72
2022/01/25 15:47:56;;;;;;;37.55;22.40;;;;;;;;;;6249317;23;20461;-72
2022/01/25 15:50:27;;;;;;;35.70;22.55;;;;;;;;;;6246731;23;20505;-73
2022/01/25 15:52:54;;;;;;;41.78;22.95;;;;;;;;;;6221486;23;20381;-74
2022/01/25 15:55:27;;;;;;;43.63;22.80;;;;;;;;;;6220659;23;20329;-73
2022/01/25 15:57:57;;;;;;;42.90;23.80;;;;;;;;;;6221086;23;20012;-71
2022/01/25 16:00:31;;;;;;;43.40;24.85;;;;;;;;;;6241492;23;20287;-73
2022/01/25 16:03:11;;;;;;;48.08;27.75;;;;;;;;;;6249101;22;20083;-72
2022/01/25 16:05:42;;;;;;;51.90;31.30;;;;;;;;;;6221560;23;20008;-72
2022/01/25 16:08:08;;;;;;;61.92;34.65;;;;;;;;;;6220909;23;20425;-72
2022/01/25 16:10:35;;;;;;;59.92;32.72;;;;;;;;;;6220040;23;20015;-73
2022/01/25 16:13:01;;;;;;;60.35;35.40;;;;;;;;;;6245587;23;20023;-76
2022/01/25 16:15:33;;;;;;;61.75;36.85;;;;;;;;;;6246740;23;20054;-74
2022/01/25 16:17:59;;;;;;;76.18;40.50;;;;;;;;;;6221636;23;20004;-72
2022/01/25 16:20:27;;;;;;;70.63;41.22;;;;;;;;;;6249273;23;20042;-73
2022/01/25 16:22:54;;;;;;;71.80;38.80;;;;;;;;;;6248418;23;20004;-73
2022/01/25 16:25:28;;;;;;;62.80;35.65;;;;;;;;;;6247167;23;20000;-72